createdAt,value
2018-06-09T00:01:31.325Z,1.20
2018-06-09T00:04:02.411Z,1.30
2018-06-09T00:06:33.337Z,1.30
2018-06-09T00:09:05.702Z,1.37
2018-06-09T00:11:36.368Z,1.23
2018-06-09T00:14:07.093Z,1.60
2018-06-09T00:16:37.773Z,1.40
2018-06-09T00:19:08.438Z,1.40
2018-06-09T00:21:39.090Z,1.60
2018-06-09T00:24:09.813Z,1.23
2018-06-09T00:26:40.550Z,1.50
2018-06-09T00:29:11.234Z,1.30
2018-06-09T00:31:41.959Z,1.60
2018-06-09T00:34:12.639Z,2.00
2018-06-09T00:36:42.625Z,1.50
2018-06-09T00:39:13.174Z,1.50
2018-06-09T00:41:44.082Z,1.30
2018-06-09T00:44:14.829Z,1.40
2018-06-09T00:46:44.856Z,1.30
2018-06-09T00:49:15.405Z,1.20
2018-06-09T00:51:46.045Z,1.60
2018-06-09T00:54:16.989Z,1.60
2018-06-09T00:56:48.525Z,1.57
2018-06-09T00:59:19.234Z,1.33
2018-06-09T01:01:49.886Z,1.60
2018-06-09T01:04:21.013Z,1.33
2018-06-09T01:06:51.750Z,1.60
2018-06-09T01:09:22.426Z,1.80
2018-06-09T01:11:53.077Z,1.80
2018-06-09T01:14:23.119Z,1.43
2018-06-09T01:16:52.980Z,1.60
2018-06-09T01:19:23.605Z,1.70
2018-06-09T01:21:54.273Z,1.70
2018-06-09T01:24:25.015Z,1.70
2018-06-09T01:26:56.070Z,1.60
2018-06-09T01:29:26.114Z,1.80
2018-06-09T01:31:56.647Z,1.60
2018-06-09T01:34:27.353Z,1.50
2018-06-09T01:36:58.004Z,1.60
2018-06-09T01:39:28.681Z,1.50
2018-06-09T01:41:59.101Z,1.63
2018-06-09T01:44:29.717Z,1.80
2018-06-09T01:47:00.638Z,1.53
2018-06-09T01:49:30.699Z,1.70
2018-06-09T01:52:01.266Z,1.50
2018-06-09T01:54:32.213Z,1.67
2018-06-09T01:57:03.270Z,2.07
2018-06-09T01:59:33.445Z,1.90
2018-06-09T02:02:04.443Z,1.80
2018-06-09T02:04:35.109Z,1.47
2018-06-09T02:07:05.827Z,1.77
2018-06-09T02:09:36.501Z,1.60
2018-06-09T02:12:07.608Z,1.80
2018-06-09T02:14:38.330Z,1.60
2018-06-09T02:17:08.629Z,1.80
2018-06-09T02:19:39.192Z,2.00
2018-06-09T02:22:10.230Z,1.50
2018-06-09T02:24:41.290Z,1.60
2018-06-09T02:27:12.008Z,1.97
2018-06-09T02:29:42.959Z,1.80
2018-06-09T02:32:12.961Z,2.10
2018-06-09T02:34:43.505Z,1.70
2018-06-09T02:37:14.132Z,1.60
2018-06-09T02:39:44.792Z,1.60
2018-06-09T02:42:15.722Z,2.07
2018-06-09T02:44:45.772Z,2.00
2018-06-09T02:47:16.311Z,1.77
2018-06-09T02:49:47.006Z,1.80
2018-06-09T02:52:17.660Z,1.60
2018-06-09T02:54:52.194Z,1.97
2018-06-09T02:57:22.870Z,1.97
2018-06-09T02:59:53.886Z,2.23
2018-06-09T03:02:24.542Z,2.00
2018-06-09T03:04:55.212Z,1.60
2018-06-09T03:07:25.902Z,1.80
2018-06-09T03:09:56.589Z,1.87
2018-06-09T03:12:27.259Z,2.07
2018-06-09T03:14:57.997Z,2.40
2018-06-09T03:17:28.654Z,2.00
2018-06-09T03:19:59.320Z,1.90
2018-06-09T03:22:29.986Z,2.23
2018-06-09T03:25:00.649Z,2.10
2018-06-09T03:27:31.375Z,2.53
2018-06-09T03:30:02.081Z,2.00
2018-06-09T03:32:33.070Z,2.30
2018-06-09T03:35:03.686Z,2.40
2018-06-09T03:37:34.362Z,2.40
2018-06-09T03:40:05.313Z,2.43
2018-06-09T03:42:35.954Z,2.60
2018-06-09T03:45:06.734Z,2.60
2018-06-09T03:47:37.372Z,2.90
2018-06-09T03:50:08.054Z,2.57
2018-06-09T03:52:38.742Z,2.70
2018-06-09T03:55:09.444Z,2.60
2018-06-09T03:57:40.094Z,2.80
2018-06-09T04:00:10.157Z,2.63
2018-06-09T04:02:40.762Z,2.83
2018-06-09T04:05:11.409Z,2.73
2018-06-09T04:07:42.097Z,2.90
2018-06-09T04:10:12.792Z,2.93
2018-06-09T04:12:43.441Z,2.43
2018-06-09T04:15:14.625Z,2.70
2018-06-09T04:17:45.325Z,2.80
2018-06-09T04:20:16.057Z,2.70
2018-06-09T04:22:46.709Z,3.30
2018-06-09T04:25:17.634Z,2.90
2018-06-09T04:27:48.354Z,3.60
2018-06-09T04:30:19.082Z,3.03
2018-06-09T04:32:50.207Z,3.37
2018-06-09T04:35:20.890Z,3.10
2018-06-09T04:39:32.834Z,2.97
2018-06-09T04:42:03.598Z,2.90
2018-06-09T04:44:34.243Z,2.97
2018-06-09T04:47:05.033Z,2.70
2018-06-09T04:49:36.598Z,3.30
2018-06-09T04:52:08.003Z,3.10
2018-06-09T04:54:38.092Z,2.80
2018-06-09T04:57:09.136Z,3.07
2018-06-09T04:59:41.282Z,2.80
2018-06-09T05:02:12.073Z,2.93
2018-06-09T05:04:42.949Z,3.23
2018-06-09T05:07:13.683Z,2.87
2018-06-09T05:09:44.456Z,3.00
2018-06-09T05:12:15.166Z,3.13
2018-06-09T05:14:45.865Z,2.90
2018-06-09T05:17:15.892Z,3.27
2018-06-09T05:19:46.406Z,3.00
2018-06-09T05:22:18.141Z,3.23
2018-06-09T05:24:48.822Z,3.37
2018-06-09T05:27:18.962Z,3.53
2018-06-09T05:29:49.550Z,3.57
2018-06-09T05:32:20.308Z,3.10
2018-06-09T05:34:50.376Z,3.13
2018-06-09T05:37:21.627Z,3.33
2018-06-09T05:39:52.412Z,3.27
2018-06-09T05:42:23.174Z,3.33
2018-06-09T05:44:54.191Z,2.90
2018-06-09T05:47:24.991Z,3.00
2018-06-09T05:49:55.650Z,3.40
2018-06-09T05:52:26.342Z,3.60
2018-06-09T05:54:57.015Z,3.30
2018-06-09T05:57:27.573Z,3.17
2018-06-09T05:59:58.114Z,3.17
2018-06-09T06:02:28.151Z,3.20
2018-06-09T06:04:58.186Z,3.37
2018-06-09T06:07:28.959Z,3.07
2018-06-09T06:09:59.625Z,3.10
2018-06-09T06:12:30.626Z,3.00
2018-06-09T06:15:01.329Z,3.20
2018-06-09T06:17:32.055Z,3.55
2018-06-09T06:20:03.380Z,3.20
2018-06-09T06:22:34.197Z,3.20
2018-06-09T06:25:05.010Z,3.10
2018-06-09T06:27:35.905Z,3.00
2018-06-09T06:30:08.075Z,3.07
2018-06-09T06:32:38.854Z,3.00
2018-06-09T06:35:09.714Z,3.20
2018-06-09T06:37:40.712Z,2.97
2018-06-09T06:40:11.592Z,3.00
2018-06-09T06:42:42.490Z,3.20
2018-06-09T06:45:13.631Z,3.10
2018-06-09T06:47:44.875Z,2.90
2018-06-09T06:50:15.833Z,3.33
2018-06-09T06:52:46.732Z,3.13
2018-06-09T06:55:17.692Z,3.27
2018-06-09T06:57:49.429Z,3.53
2018-06-09T07:00:20.303Z,3.80
2018-06-09T07:02:50.931Z,3.10
2018-06-09T07:05:21.713Z,3.10
2018-06-09T07:07:52.608Z,3.33
2018-06-09T07:10:23.358Z,3.10
2018-06-09T07:12:54.531Z,3.13
2018-06-09T07:15:25.380Z,3.07
2018-06-09T07:17:56.176Z,2.90
2018-06-09T07:20:27.113Z,3.17
2018-06-09T07:22:57.930Z,3.10
2018-06-09T07:25:28.693Z,3.50
2018-06-09T07:27:59.358Z,3.40
2018-06-09T07:30:30.043Z,3.10
2018-06-09T07:33:01.154Z,2.80
2018-06-09T07:35:31.870Z,3.00
2018-06-09T07:38:02.851Z,3.10
2018-06-09T07:40:33.902Z,2.70
2018-06-09T07:43:04.947Z,2.93
2018-06-09T07:45:35.602Z,2.90
2018-06-09T07:48:06.294Z,3.00
2018-06-09T07:50:37.080Z,3.00
2018-06-09T07:53:07.801Z,2.80
2018-06-09T07:55:38.541Z,3.00
2018-06-09T07:58:09.523Z,3.00
2018-06-09T08:00:40.298Z,2.67
2018-06-09T08:03:11.470Z,3.13
2018-06-09T08:05:42.165Z,2.67
2018-06-09T08:08:12.917Z,3.33
2018-06-09T08:10:43.618Z,3.20
2018-06-09T08:13:14.377Z,3.00
2018-06-09T08:15:45.126Z,3.03
2018-06-09T08:18:15.872Z,3.43
2018-06-09T08:20:46.630Z,3.03
2018-06-09T08:23:17.451Z,3.37
2018-06-09T08:25:48.697Z,3.20
2018-06-09T08:28:19.635Z,3.10
2018-06-09T08:30:50.455Z,3.20
2018-06-09T08:33:21.266Z,3.27
2018-06-09T08:35:52.299Z,3.40
2018-06-09T08:38:23.378Z,3.30
2018-06-09T08:40:54.083Z,3.30
2018-06-09T08:43:24.855Z,3.03
2018-06-09T08:45:55.894Z,3.30
2018-06-09T08:48:26.657Z,3.67
2018-06-09T08:50:57.422Z,3.27
2018-06-09T08:53:28.251Z,3.10
2018-06-09T08:55:58.981Z,3.07
2018-06-09T08:58:30.210Z,3.47
2018-06-09T09:01:01.003Z,3.20
2018-06-09T09:03:31.873Z,3.63
2018-06-09T09:06:02.649Z,3.10
2018-06-09T09:08:33.463Z,3.20
2018-06-09T09:11:04.297Z,3.30
2018-06-09T09:13:35.114Z,3.20
2018-06-09T09:16:05.300Z,3.20
2018-06-09T09:18:36.002Z,3.27
2018-06-09T09:21:06.801Z,3.10
2018-06-09T09:23:37.947Z,3.10
2018-06-09T09:26:09.318Z,3.40
2018-06-09T09:28:40.178Z,3.40
2018-06-09T09:31:11.048Z,3.50
2018-06-09T09:33:41.890Z,3.00
2018-06-09T09:36:12.655Z,2.90
2018-06-09T09:38:42.818Z,3.10
2018-06-09T09:41:13.534Z,3.27
2018-06-09T09:43:43.628Z,2.87
2018-06-09T09:46:14.608Z,3.53
2018-06-09T09:48:45.426Z,3.20
2018-06-09T09:51:16.559Z,3.10
2018-06-09T09:53:47.551Z,3.35
2018-06-09T09:56:18.551Z,3.37
2018-06-09T09:58:49.525Z,3.23
2018-06-09T10:01:20.537Z,3.30
2018-06-09T10:03:51.586Z,3.10
2018-06-09T10:06:22.526Z,3.40
2018-06-09T10:08:53.581Z,3.50
2018-06-09T10:11:24.620Z,3.50
2018-06-09T10:13:54.866Z,3.07
2018-06-09T10:16:24.850Z,3.30
2018-06-09T10:18:55.966Z,3.03
2018-06-09T10:21:26.735Z,3.40
2018-06-09T10:23:57.593Z,3.60
2018-06-09T10:26:27.657Z,3.10
2018-06-09T10:28:58.345Z,3.27
2018-06-09T10:31:29.195Z,3.20
2018-06-09T10:33:59.991Z,3.00
2018-06-09T10:36:31.198Z,3.00
2018-06-09T10:39:02.145Z,2.90
2018-06-09T10:41:33.147Z,2.90
2018-06-09T10:44:03.998Z,3.40
2018-06-09T10:46:34.833Z,3.17
2018-06-09T10:49:06.230Z,3.30
2018-06-09T10:51:37.282Z,3.17
2018-06-09T10:54:08.241Z,3.30
2018-06-09T10:56:39.071Z,2.90
2018-06-09T10:59:09.869Z,2.90
2018-06-09T11:01:40.644Z,2.80
2018-06-09T11:04:13.546Z,3.50
2018-06-09T11:06:45.513Z,3.30
2018-06-09T11:09:16.813Z,3.40
2018-06-09T11:11:48.520Z,3.20
2018-06-09T11:14:20.752Z,3.07
2018-06-09T11:16:51.655Z,3.00
2018-06-09T11:19:21.885Z,3.13
2018-06-09T11:21:52.889Z,3.20
2018-06-09T11:24:23.315Z,3.30
2018-06-09T11:26:54.153Z,2.90
2018-06-09T11:29:25.023Z,2.97
2018-06-09T11:31:55.207Z,3.07
2018-06-09T11:34:26.380Z,2.87
2018-06-09T11:36:57.141Z,3.53
2018-06-09T11:39:28.049Z,3.13
2018-06-09T11:41:58.854Z,3.40
2018-06-09T11:44:29.938Z,3.57
2018-06-09T11:47:00.705Z,3.30
2018-06-09T11:49:31.617Z,3.10
2018-06-09T11:52:02.450Z,3.37
2018-06-09T11:54:33.415Z,3.00
2018-06-09T11:57:04.676Z,3.10
2018-06-09T11:59:34.747Z,3.07
2018-06-09T12:02:04.765Z,3.10
2018-06-09T12:04:35.446Z,3.03
2018-06-09T12:07:05.933Z,2.60
2018-06-09T12:09:36.606Z,3.00
2018-06-09T12:12:07.363Z,3.00
2018-06-09T12:14:37.443Z,3.00
2018-06-09T12:17:08.149Z,2.70
2018-06-09T12:19:38.906Z,3.00
2018-06-09T12:22:09.996Z,2.97
2018-06-09T12:24:40.789Z,2.97
2018-06-09T12:27:11.540Z,3.10
2018-06-09T12:29:42.308Z,2.67
2018-06-09T12:32:13.246Z,2.70
2018-06-09T12:34:44.359Z,2.60
2018-06-09T12:37:15.186Z,2.90
2018-06-09T12:39:46.081Z,2.60
2018-06-09T12:42:16.486Z,2.83
2018-06-09T12:44:47.122Z,2.53
2018-06-09T12:47:18.130Z,2.30
2018-06-09T12:49:48.942Z,2.57
2018-06-09T12:52:19.780Z,2.40
2018-06-09T12:54:49.959Z,2.50
2018-06-09T12:57:21.595Z,2.27
2018-06-09T12:59:52.385Z,2.67
2018-06-09T13:02:23.519Z,2.40
2018-06-09T13:04:54.558Z,2.50
2018-06-09T13:07:25.304Z,3.07
2018-06-09T13:09:55.885Z,2.60
2018-06-09T13:12:25.946Z,2.50
2018-06-09T13:14:57.241Z,2.73
2018-06-09T13:17:28.131Z,2.60
2018-06-09T13:19:59.084Z,2.50
2018-06-09T13:22:30.032Z,2.70
2018-06-09T13:25:00.248Z,2.50
2018-06-09T13:27:30.871Z,2.87
2018-06-09T13:30:02.103Z,2.53
2018-06-09T13:32:33.115Z,2.60
2018-06-09T13:35:04.895Z,2.67
2018-06-09T13:37:35.802Z,2.90
2018-06-09T13:40:06.722Z,2.80
2018-06-09T13:42:37.490Z,2.80
2018-06-09T13:45:08.300Z,2.90
2018-06-09T13:47:38.904Z,2.60
2018-06-09T13:50:15.695Z,2.55
2018-06-09T13:52:46.930Z,2.47
2018-06-09T13:55:17.722Z,2.70
2018-06-09T13:57:48.211Z,2.50
2018-06-09T14:00:19.206Z,2.65
2018-06-09T14:02:49.981Z,2.50
2018-06-09T14:05:20.731Z,2.60
2018-06-09T14:07:51.524Z,2.70
2018-06-09T14:10:23.321Z,2.60
2018-06-09T14:12:54.038Z,2.80
2018-06-09T14:15:25.011Z,2.40
2018-06-09T14:17:55.825Z,2.70
2018-06-09T14:20:26.995Z,2.60
2018-06-09T14:22:58.129Z,2.53
2018-06-09T14:25:29.013Z,2.95
2018-06-09T14:27:59.701Z,2.43
2018-06-09T14:30:30.460Z,2.50
2018-06-09T14:33:01.227Z,2.40
2018-06-09T14:35:32.158Z,2.60
2018-06-09T14:38:03.034Z,2.40
2018-06-09T14:40:33.991Z,2.60
2018-06-09T14:43:05.638Z,2.53
2018-06-09T14:45:36.735Z,2.23
2018-06-09T14:48:07.788Z,2.50
2018-06-09T14:50:38.931Z,2.47
2018-06-09T14:53:09.679Z,2.40
2018-06-09T14:55:39.907Z,2.00
2018-06-09T14:58:10.549Z,2.23
2018-06-09T15:00:41.725Z,2.10
2018-06-09T15:03:12.541Z,2.20
2018-06-09T15:05:42.602Z,2.10
2018-06-09T15:08:13.737Z,2.20
2018-06-09T15:10:44.603Z,1.90
2018-06-09T15:13:15.491Z,2.00
2018-06-09T15:15:46.370Z,2.10
2018-06-09T15:18:17.231Z,2.12
2018-06-09T15:20:48.781Z,2.00
2018-06-09T15:23:20.512Z,2.10
2018-06-09T15:25:51.796Z,1.87
2018-06-09T15:28:22.744Z,1.92
2018-06-09T15:30:53.956Z,2.10
2018-06-09T15:33:24.973Z,2.25
2018-06-09T15:35:56.094Z,2.15
2018-06-09T15:38:27.111Z,2.07
2018-06-09T15:40:58.432Z,2.07
2018-06-09T15:43:30.375Z,2.00
2018-06-09T15:46:01.320Z,1.95
2018-06-09T15:48:32.700Z,1.92
2018-06-09T15:51:03.558Z,1.73
2018-06-09T15:53:34.559Z,1.80
2018-06-09T15:56:05.484Z,1.80
2018-06-09T15:58:36.567Z,2.00
2018-06-09T16:01:08.591Z,1.83
2018-06-09T16:03:38.840Z,1.90
2018-06-09T16:06:08.958Z,2.02
2018-06-09T16:08:39.757Z,1.82
2018-06-09T16:11:10.733Z,1.60
2018-06-09T16:13:41.819Z,1.80
2018-06-09T16:16:12.752Z,1.62
2018-06-09T16:18:43.801Z,2.08
2018-06-09T16:21:14.864Z,1.77
2018-06-09T16:23:45.747Z,1.53
2018-06-09T16:26:16.827Z,1.50
2018-06-09T16:28:47.834Z,1.60
2018-06-09T16:31:19.207Z,1.80
2018-06-09T16:33:50.161Z,1.73
2018-06-09T16:36:21.365Z,1.80
2018-06-09T16:38:51.469Z,1.60
2018-06-09T16:41:22.211Z,1.80
2018-06-09T16:43:53.341Z,1.70
2018-06-09T16:46:24.225Z,1.80
2018-06-09T16:48:54.432Z,1.70
2018-06-09T16:51:25.135Z,1.80
2018-06-09T16:53:56.042Z,1.67
2018-06-09T16:56:26.807Z,1.70
2018-06-09T16:58:57.996Z,1.57
2018-06-09T17:01:28.275Z,1.73
2018-06-09T17:03:59.315Z,1.50
2018-06-09T17:06:30.070Z,1.60
2018-06-09T17:09:01.661Z,1.70
2018-06-09T17:11:32.532Z,1.60
2018-06-09T17:14:03.302Z,1.80
2018-06-09T17:16:33.650Z,1.70
2018-06-09T17:19:04.924Z,1.98
2018-06-09T17:21:35.858Z,1.77
2018-06-09T17:24:06.015Z,1.60
2018-06-09T17:26:36.674Z,2.03
2018-06-09T17:29:07.626Z,1.77
2018-06-09T17:31:37.750Z,1.47
2018-06-09T17:34:08.479Z,1.77
2018-06-09T17:36:39.565Z,2.00
2018-06-09T17:39:09.843Z,1.63
2018-06-09T17:41:40.511Z,1.83
2018-06-09T17:44:11.781Z,1.50
2018-06-09T17:46:42.588Z,1.40
2018-06-09T17:49:13.615Z,1.80
2018-06-09T17:51:44.813Z,1.67
2018-06-09T17:54:15.547Z,1.57
2018-06-09T17:56:46.351Z,1.73
2018-06-09T17:59:17.544Z,1.50
2018-06-09T18:01:48.683Z,1.73
2018-06-09T18:04:21.716Z,1.43
2018-06-09T18:06:52.728Z,1.90
2018-06-09T18:09:24.324Z,1.50
2018-06-09T18:11:57.166Z,1.60
2018-06-09T18:14:28.873Z,1.60
2018-06-09T18:17:00.794Z,1.60
2018-06-09T18:19:32.744Z,1.63
2018-06-09T18:22:03.582Z,1.80
2018-06-09T18:24:33.705Z,1.60
2018-06-09T18:27:04.878Z,1.80
2018-06-09T18:29:35.797Z,1.70
2018-06-09T18:32:07.449Z,1.80
2018-06-09T18:34:38.241Z,2.00
2018-06-09T18:37:09.069Z,1.70
2018-06-09T18:39:39.804Z,1.87
2018-06-09T18:42:10.478Z,1.65
2018-06-09T18:44:41.443Z,1.77
2018-06-09T18:47:11.495Z,1.80
2018-06-09T18:49:41.491Z,1.73
2018-06-09T18:52:12.547Z,1.50
2018-06-09T18:54:43.472Z,1.73
2018-06-09T18:57:14.249Z,1.80
2018-06-09T18:59:45.050Z,1.80
2018-06-09T19:02:15.814Z,1.53
2018-06-09T19:04:46.541Z,1.90
2018-06-09T19:07:17.642Z,1.80
2018-06-09T19:09:48.772Z,2.00
2018-06-09T19:12:19.565Z,1.80
2018-06-09T19:14:50.405Z,2.00
2018-06-09T19:17:21.161Z,1.72
2018-06-09T19:19:51.941Z,1.67
2018-06-09T19:22:22.079Z,1.70
2018-06-09T19:24:53.137Z,1.70
2018-06-09T19:27:23.284Z,1.70
2018-06-09T19:29:54.062Z,2.00
2018-06-09T19:32:24.856Z,1.70
2018-06-09T19:34:55.651Z,1.82
2018-06-09T19:37:26.612Z,1.73
2018-06-09T19:39:57.426Z,1.90
2018-06-09T19:42:28.194Z,2.07
2018-06-09T19:44:59.029Z,1.80
2018-06-09T19:47:29.829Z,1.57
2018-06-09T19:50:00.644Z,1.90
2018-06-09T19:52:31.481Z,1.80
2018-06-09T19:55:02.204Z,1.90
2018-06-09T19:57:33.133Z,1.93
2018-06-09T20:00:04.142Z,1.70
2018-06-09T20:03:37.540Z,1.70
2018-06-09T20:06:07.699Z,1.80
2018-06-09T20:08:38.901Z,1.80
2018-06-09T20:11:09.742Z,2.00
2018-06-09T20:13:40.967Z,1.73
2018-06-09T20:16:11.926Z,2.00
2018-06-09T20:18:43.755Z,1.93
2018-06-09T20:21:14.829Z,2.30
2018-06-09T20:23:45.622Z,1.67
2018-06-09T20:26:16.560Z,1.97
2018-06-09T20:28:47.484Z,1.90
2018-06-09T20:31:18.435Z,2.00
2018-06-09T20:33:49.247Z,2.20
2018-06-09T20:36:19.352Z,1.80
2018-06-09T20:38:50.449Z,2.07
2018-06-09T20:41:21.216Z,2.23
2018-06-09T20:43:52.974Z,2.07
2018-06-09T20:46:24.004Z,2.10
2018-06-09T20:48:54.735Z,1.93
2018-06-09T20:51:25.537Z,2.20
2018-06-09T20:53:55.584Z,2.00
2018-06-09T20:56:25.541Z,2.23
2018-06-09T20:58:56.160Z,2.27
2018-06-09T21:01:26.928Z,1.93
2018-06-09T21:03:57.648Z,1.60
2018-06-09T21:06:28.442Z,1.80
2018-06-09T21:08:59.153Z,2.13
2018-06-09T21:11:30.035Z,1.90
2018-06-09T21:14:00.975Z,1.90
2018-06-09T21:16:31.702Z,2.20
2018-06-09T21:19:02.679Z,2.20
2018-06-09T21:21:33.505Z,2.17
2018-06-09T21:24:04.286Z,2.13
2018-06-09T21:26:40.202Z,2.30
2018-06-09T21:29:13.122Z,2.27
2018-06-09T21:31:45.204Z,2.27
2018-06-09T21:34:31.399Z,1.83
2018-06-09T21:37:06.653Z,2.20
2018-06-09T21:39:42.224Z,2.13
2018-06-09T21:42:17.947Z,2.17
2018-06-09T21:45:52.705Z,2.40
2018-06-09T21:48:23.462Z,2.57
2018-06-09T21:50:54.476Z,2.33
2018-06-09T21:53:25.213Z,2.27
2018-06-09T21:55:56.253Z,2.33
2018-06-09T21:58:27.033Z,2.30
2018-06-09T22:00:57.993Z,2.30
2018-06-09T22:03:28.758Z,2.30
2018-06-09T22:05:59.530Z,2.47
2018-06-09T22:08:30.272Z,3.00
2018-06-09T22:11:01.010Z,2.43
2018-06-09T22:13:32.189Z,2.60
2018-06-09T22:16:02.940Z,2.50
2018-06-09T22:18:33.593Z,2.40
2018-06-09T22:21:04.265Z,2.55
2018-06-09T22:23:34.942Z,2.60
2018-06-09T22:26:05.489Z,2.27
2018-06-09T22:28:36.198Z,2.73
2018-06-09T22:31:07.285Z,2.70
2018-06-09T22:33:38.277Z,2.60
2018-06-09T22:36:08.352Z,2.53
2018-06-09T22:38:38.890Z,2.70
2018-06-09T22:41:09.557Z,2.67
2018-06-09T22:43:40.217Z,2.47
2018-06-09T22:46:10.927Z,2.83
2018-06-09T22:48:41.564Z,2.60
2018-06-09T22:51:12.386Z,2.60
2018-06-09T22:53:43.086Z,2.53
2018-06-09T22:56:15.181Z,2.47
2018-06-09T22:58:46.123Z,2.60
2018-06-09T23:01:16.859Z,2.67
2018-06-09T23:03:47.961Z,2.33
2018-06-09T23:06:18.393Z,2.77
2018-06-09T23:08:48.687Z,2.77
2018-06-09T23:11:19.577Z,2.57
2018-06-09T23:13:49.904Z,2.77
2018-06-09T23:16:20.382Z,2.70
2018-06-09T23:18:50.701Z,2.93
2018-06-09T23:21:21.181Z,2.73
2018-06-09T23:23:51.558Z,2.73
2018-06-09T23:26:22.523Z,2.57
2018-06-09T23:28:52.512Z,2.73
2018-06-09T23:31:23.101Z,2.73
2018-06-09T23:33:53.822Z,3.10
2018-06-09T23:36:24.510Z,3.27
2018-06-09T23:38:55.153Z,3.40
2018-06-09T23:41:26.358Z,3.10
2018-06-09T23:43:57.006Z,3.30
2018-06-09T23:46:27.774Z,2.50
2018-06-09T23:48:58.853Z,2.67
2018-06-09T23:51:28.944Z,2.30
2018-06-09T23:53:59.466Z,2.67
2018-06-09T23:56:30.170Z,2.80
2018-06-09T23:59:00.893Z,2.70
